Bedford, MT

6:41 PM MST on February 23, 2017 (GMT -0700)
MGINM8 | | Change Station

Elev 4368 ft 46.33 °N, 111.59 °W | Updated 12 minutes ago

Overcast
Overcast
28.0 °F
Feels Like 16 °F
N
15.0
Wind Variable Wind from North
Gusts 20.0 mph

Today
High -- | Low -- °F
--% Chance of Precip.
Yesterday
High -- | Low -- °F
Precip. -- in
Pressure 30.09 in
Visibility 10.0 miles
Clouds Overcast 5500 ft
Windchill 16 °F
Dew Point 18.0 °F
Humidity 65%
Rainfall in
Snow Depth Not available.
7:15 AM 6:04 PM
Waning Crescent, 7% visible
METAR KHLN 240053Z 33009KT 10SM OVC055 M02/M06 A2994 RMK AO2 SLP187 T10171061
Pressure 30.09 in
Visibility 10.0 miles
Clouds Overcast 5500 ft
Windchill 16 °F
Dew Point 18.0 °F
Humidity 65%
Rainfall in
Snow Depth Not available.
7:15 AM 6:04 PM
Waning Crescent, 7% visible
METAR KHLN 240053Z 33009KT 10SM OVC055 M02/M06 A2994 RMK AO2 SLP187 T10171061

Get Your Daily Forecast Email!

Thanks for signing up!

Be on the lookout for a verification email in your inbox.

You'll start receiving the daily forecast at 8 AM.

×

10-Day Weather Forecast

Almanac

Astronomy

Feb. 23, 2017 Rise Set
Actual Time
Civil Twilight
Nautical Twilight
Astronomical Twilight
Moon
Length of Visible Light
Length of Day
Tomorrow will be .
, % of the Moon is Illuminated

Today's Extremes

State Highs State Lows

Community

WunderPhotos

Upload Photos

1,962,540 photos uploaded!

WunderBlog® & News

Nearby

Air Quality

  Air Quality AQ Index Pollutant
Not available.

Snow Depth

Station Depth Elevation

Earthquake Activity

City Distance Mag. Time & Date
Minimum magnitude displayed is 2.5.

Coastal Water Temperatures

Place Temperature

Stations

Nearby Weather Stations

Station Location Temp. Windchill Dew Point Humidity Wind Precip. Elev Updated Type
                   

Watches & Warnings

There are currently no watches in effect.